createdAt,value
2023-05-24T00:01:25.911Z,5.30
2023-05-24T00:03:53.664Z,4.63
2023-05-24T00:06:22.120Z,5.00
2023-05-24T00:08:49.012Z,4.37
2023-05-24T00:11:15.979Z,4.20
2023-05-24T00:13:42.895Z,5.27
2023-05-24T00:16:09.896Z,4.40
2023-05-24T00:18:41.048Z,6.33
2023-05-24T00:21:08.530Z,6.97
2023-05-24T00:23:37.185Z,6.10
2023-05-24T00:26:04.360Z,4.60
2023-05-24T00:28:31.454Z,6.47
2023-05-24T00:30:58.592Z,6.13
2023-05-24T00:33:27.064Z,4.43
2023-05-24T00:35:56.559Z,4.03
2023-05-24T00:38:23.932Z,5.03
2023-05-24T00:40:57.714Z,5.80
2023-05-24T00:43:24.770Z,5.10
2023-05-24T00:46:12.595Z,5.57
2023-05-24T00:48:39.870Z,6.40
2023-05-24T00:51:07.022Z,4.90
2023-05-24T00:53:35.495Z,5.03
2023-05-24T00:56:04.037Z,4.33
2023-05-24T00:58:31.893Z,5.27
2023-05-24T01:01:01.138Z,5.47
2023-05-24T01:03:31.909Z,4.77
2023-05-24T01:05:59.943Z,4.50
2023-05-24T01:08:45.925Z,5.53
2023-05-24T01:11:22.236Z,6.97
2023-05-24T01:13:58.701Z,6.50
2023-05-24T01:16:31.830Z,6.07
2023-05-24T01:19:06.010Z,6.40
2023-05-24T01:21:56.166Z,6.07
2023-05-24T01:24:30.060Z,5.77
2023-05-24T01:27:07.111Z,6.07
2023-05-24T01:29:36.450Z,5.80
2023-05-24T01:32:04.011Z,5.10
2023-05-24T01:34:31.146Z,4.10
2023-05-24T01:36:58.087Z,5.47
2023-05-24T01:39:27.725Z,5.47
2023-05-24T01:42:07.602Z,6.20
2023-05-24T01:44:39.022Z,4.63
2023-05-24T01:47:19.607Z,7.57
2023-05-24T01:49:50.631Z,6.70
2023-05-24T01:52:22.302Z,7.70
2023-05-24T01:54:53.133Z,5.63
2023-05-24T01:57:23.559Z,5.80
2023-05-24T01:59:51.472Z,8.00
2023-05-24T02:02:19.317Z,6.63
2023-05-24T02:04:46.989Z,6.10
2023-05-24T02:07:13.930Z,6.30
2023-05-24T02:09:41.019Z,5.70
2023-05-24T02:12:09.611Z,6.13
2023-05-24T02:14:37.999Z,6.07
2023-05-24T02:19:34.588Z,6.17
2023-05-24T02:22:01.594Z,7.53
2023-05-24T02:24:28.517Z,6.33
2023-05-24T02:26:56.132Z,7.27
2023-05-24T02:29:23.190Z,6.97
2023-05-24T02:31:56.283Z,7.13
2023-05-24T02:34:23.739Z,6.70
2023-05-24T02:36:51.101Z,6.43
2023-05-24T02:39:18.050Z,7.77
2023-05-24T02:41:44.960Z,5.57
2023-05-24T02:44:12.086Z,6.67
2023-05-24T02:46:39.063Z,5.73
2023-05-24T02:49:07.386Z,7.17
2023-05-24T02:51:34.350Z,7.77
2023-05-24T02:54:01.292Z,6.70
2023-05-24T02:56:29.434Z,8.23
2023-05-24T02:58:56.519Z,6.13
2023-05-24T03:01:23.548Z,7.60
2023-05-24T03:03:53.048Z,5.93
2023-05-24T03:06:21.628Z,8.13
2023-05-24T03:08:49.697Z,7.27
2023-05-24T03:11:16.838Z,10.20
2023-05-24T03:13:44.383Z,7.97
2023-05-24T03:16:11.845Z,7.33
2023-05-24T03:18:38.933Z,8.90
2023-05-24T03:21:07.476Z,7.17
2023-05-24T03:23:36.364Z,6.67
2023-05-24T03:26:04.249Z,6.87
2023-05-24T03:28:31.245Z,6.70
2023-05-24T03:30:58.394Z,8.17
2023-05-24T03:33:25.396Z,6.93
2023-05-24T03:35:52.301Z,6.90
2023-05-24T03:38:19.205Z,5.93
2023-05-24T03:40:48.844Z,7.00
2023-05-24T03:43:18.391Z,6.70
2023-05-24T03:45:48.636Z,7.97
2023-05-24T03:48:15.739Z,6.93
2023-05-24T03:50:42.944Z,7.37
2023-05-24T03:53:10.077Z,6.30
2023-05-24T03:55:38.497Z,8.83
2023-05-24T03:58:06.769Z,6.43
2023-05-24T04:00:33.678Z,8.33
2023-05-24T04:03:02.508Z,7.57
2023-05-24T04:05:30.047Z,8.83
2023-05-24T04:07:57.047Z,8.03
2023-05-24T04:10:24.003Z,8.83
2023-05-24T04:12:51.213Z,8.30
2023-05-24T04:15:19.489Z,6.50
2023-05-24T04:17:46.889Z,9.63
2023-05-24T04:20:14.127Z,9.03
2023-05-24T04:22:41.246Z,7.67
2023-05-24T04:25:09.934Z,7.30
2023-05-24T04:27:37.285Z,6.70
2023-05-24T04:30:05.606Z,8.40
2023-05-24T04:32:33.881Z,9.57
2023-05-24T04:35:02.692Z,7.47
2023-05-24T04:37:31.686Z,7.13
2023-05-24T04:39:58.682Z,9.50
2023-05-24T04:42:25.650Z,7.53
2023-05-24T04:44:52.560Z,6.80
2023-05-24T04:47:19.450Z,7.50
2023-05-24T04:49:47.726Z,9.83
2023-05-24T04:52:14.999Z,8.87
2023-05-24T04:54:41.925Z,6.90
2023-05-24T04:57:08.899Z,7.13
2023-05-24T04:59:36.249Z,8.00
2023-05-24T05:02:03.256Z,9.17
2023-05-24T05:04:30.197Z,8.43
2023-05-24T05:06:58.693Z,8.40
2023-05-24T05:09:25.784Z,7.63
2023-05-24T05:11:52.696Z,8.43
2023-05-24T05:14:19.842Z,8.47
2023-05-24T05:16:47.055Z,9.27
2023-05-24T05:19:14.025Z,10.60
2023-05-24T05:21:40.974Z,8.13
2023-05-24T05:24:09.572Z,6.43
2023-05-24T05:26:36.538Z,8.37
2023-05-24T05:29:03.735Z,14.47
2023-05-24T05:31:31.033Z,8.53
2023-05-24T05:33:57.975Z,7.70
2023-05-24T05:36:24.949Z,9.30
2023-05-24T05:38:51.910Z,8.60
2023-05-24T05:41:20.157Z,6.70
2023-05-24T05:43:47.083Z,7.57
2023-05-24T05:46:15.603Z,10.53
2023-05-24T05:48:43.275Z,6.53
2023-05-24T05:51:11.888Z,9.10
2023-05-24T05:53:38.843Z,9.57
2023-05-24T05:56:06.284Z,5.33
2023-05-24T05:58:34.667Z,9.90
2023-05-24T06:01:01.778Z,7.47
2023-05-24T06:03:28.942Z,8.60
2023-05-24T06:05:56.134Z,6.87
2023-05-24T06:08:23.036Z,7.57
2023-05-24T06:10:51.985Z,7.70
2023-05-24T06:13:19.820Z,9.10
2023-05-24T06:15:48.307Z,9.43
2023-05-24T06:18:15.457Z,7.23
2023-05-24T06:20:42.616Z,8.50
2023-05-24T06:23:09.753Z,6.40
2023-05-24T06:25:38.711Z,7.80
2023-05-24T06:28:05.777Z,8.10
2023-05-24T06:30:33.696Z,10.10
2023-05-24T06:33:02.574Z,9.47
2023-05-24T06:35:29.560Z,9.77
2023-05-24T06:37:57.966Z,11.07
2023-05-24T06:40:24.886Z,8.10
2023-05-24T06:42:51.813Z,6.93
2023-05-24T06:45:18.735Z,9.77
2023-05-24T06:47:45.715Z,9.13
2023-05-24T06:50:14.481Z,10.03
2023-05-24T06:52:41.396Z,7.20
2023-05-24T06:55:08.764Z,7.27
2023-05-24T06:57:35.810Z,7.57
2023-05-24T07:00:05.180Z,11.80
2023-05-24T07:02:32.265Z,8.77
2023-05-24T07:04:59.193Z,7.80
2023-05-24T07:07:27.504Z,7.57
2023-05-24T07:09:54.465Z,8.63
2023-05-24T07:12:21.452Z,9.23
2023-05-24T07:14:48.343Z,11.93
2023-05-24T07:17:15.335Z,8.43
2023-05-24T07:19:42.492Z,6.73
2023-05-24T07:22:09.434Z,7.50
2023-05-24T07:24:37.682Z,8.53
2023-05-24T07:27:05.304Z,6.57
2023-05-24T07:29:32.401Z,10.33
2023-05-24T07:31:59.361Z,8.30
2023-05-24T07:34:27.994Z,8.67
2023-05-24T07:36:54.877Z,9.57
2023-05-24T07:39:21.742Z,9.50
2023-05-24T07:41:50.868Z,10.00
2023-05-24T07:44:18.965Z,6.40
2023-05-24T07:46:46.458Z,10.63
2023-05-24T07:49:13.366Z,11.97
2023-05-24T07:51:40.272Z,8.10
2023-05-24T07:54:07.228Z,10.77
2023-05-24T07:56:34.123Z,8.07
2023-05-24T07:59:05.449Z,9.03
2023-05-24T08:01:32.756Z,12.83
2023-05-24T08:03:59.787Z,8.67
2023-05-24T08:06:27.473Z,9.33
2023-05-24T08:08:54.830Z,10.43
2023-05-24T08:11:21.804Z,10.27
2023-05-24T08:13:48.716Z,8.90
2023-05-24T08:16:17.004Z,10.97
2023-05-24T08:18:44.139Z,10.07
2023-05-24T08:21:11.546Z,7.70
2023-05-24T08:23:38.547Z,9.50
2023-05-24T08:26:05.923Z,6.90
2023-05-24T08:28:33.387Z,9.13
2023-05-24T08:31:00.424Z,9.30
2023-05-24T08:33:29.810Z,9.50
2023-05-24T08:35:56.747Z,11.17
2023-05-24T08:38:23.712Z,8.20
2023-05-24T08:40:50.830Z,8.67
2023-05-24T08:43:19.107Z,12.10
2023-05-24T08:45:46.738Z,7.30
2023-05-24T08:48:15.214Z,8.23
2023-05-24T08:50:45.013Z,9.73
2023-05-24T08:53:13.087Z,10.00
2023-05-24T08:55:40.525Z,10.17
2023-05-24T08:58:07.972Z,11.10
2023-05-24T09:00:34.918Z,9.00
2023-05-24T09:03:02.658Z,11.73
2023-05-24T09:05:30.303Z,8.87
2023-05-24T09:08:00.198Z,9.43
2023-05-24T09:10:35.425Z,8.33
2023-05-24T09:13:09.991Z,9.27
2023-05-24T09:15:37.083Z,9.27
2023-05-24T09:18:04.165Z,10.63
2023-05-24T09:20:31.304Z,9.23
2023-05-24T09:23:01.636Z,10.57
2023-05-24T09:25:31.613Z,9.77
2023-05-24T09:27:58.554Z,10.63
2023-05-24T09:30:25.436Z,8.70
2023-05-24T09:32:57.334Z,10.93
2023-05-24T09:35:24.812Z,9.23
2023-05-24T09:37:55.212Z,6.80
2023-05-24T09:40:23.979Z,6.93
2023-05-24T09:43:03.337Z,13.43
2023-05-24T09:45:30.262Z,9.07
2023-05-24T09:47:58.043Z,11.17
2023-05-24T09:50:27.097Z,9.47
2023-05-24T09:52:56.078Z,9.40
2023-05-24T09:55:26.946Z,8.87
2023-05-24T09:58:03.240Z,9.63
2023-05-24T10:00:31.044Z,10.57
2023-05-24T10:03:06.793Z,8.23
2023-05-24T10:05:34.652Z,10.57
2023-05-24T10:08:02.380Z,12.23
2023-05-24T10:10:33.501Z,10.30
2023-05-24T10:13:01.610Z,7.53
2023-05-24T10:15:29.310Z,8.90
2023-05-24T10:17:57.493Z,9.23
2023-05-24T10:20:25.127Z,11.03
2023-05-24T10:22:54.042Z,8.30
2023-05-24T10:25:22.960Z,8.90
2023-05-24T10:27:54.061Z,10.97
2023-05-24T10:30:27.036Z,10.83
2023-05-24T10:32:56.942Z,7.80
2023-05-24T10:35:25.541Z,9.50
2023-05-24T10:37:54.408Z,9.97
2023-05-24T10:40:25.328Z,8.10
2023-05-24T10:42:56.577Z,8.37
2023-05-24T10:45:36.880Z,8.80
2023-05-24T10:48:37.681Z,9.33
2023-05-24T10:51:33.390Z,8.57
2023-05-24T10:54:15.671Z,8.63
2023-05-24T10:56:45.078Z,11.37
2023-05-24T10:59:28.010Z,8.23
2023-05-24T11:01:56.778Z,9.87
2023-05-24T11:04:24.163Z,8.63
2023-05-24T11:06:56.195Z,8.57
2023-05-24T11:09:23.622Z,8.20
2023-05-24T11:11:55.632Z,11.23
2023-05-24T11:14:27.491Z,7.90
2023-05-24T11:16:54.779Z,9.43
2023-05-24T11:19:23.140Z,10.53
2023-05-24T11:21:51.452Z,11.47
2023-05-24T11:24:19.468Z,10.33
2023-05-24T11:26:47.036Z,7.27
2023-05-24T11:29:17.618Z,8.13
2023-05-24T11:31:49.364Z,12.33
2023-05-24T11:34:17.348Z,10.20
2023-05-24T11:36:45.190Z,8.17
2023-05-24T11:39:13.598Z,11.20
2023-05-24T11:41:41.197Z,10.17
2023-05-24T11:44:09.814Z,9.97
2023-05-24T11:46:39.123Z,10.57
2023-05-24T11:49:07.531Z,7.70
2023-05-24T11:51:35.223Z,11.83
2023-05-24T11:54:02.199Z,10.47
2023-05-24T11:56:32.987Z,9.00
2023-05-24T11:59:10.992Z,8.50
2023-05-24T12:01:38.187Z,7.07
2023-05-24T12:04:09.726Z,8.60
2023-05-24T12:06:38.905Z,7.43
2023-05-24T12:09:08.539Z,7.40
2023-05-24T12:11:39.556Z,6.33
2023-05-24T12:14:07.426Z,8.17
2023-05-24T12:16:36.729Z,8.37
2023-05-24T12:19:07.409Z,7.53
2023-05-24T12:21:42.877Z,6.50
2023-05-24T12:24:10.954Z,6.07
2023-05-24T12:26:40.978Z,8.57
2023-05-24T12:29:07.853Z,6.50
2023-05-24T12:31:34.871Z,9.70
2023-05-24T12:34:02.293Z,7.67
2023-05-24T12:36:29.636Z,5.73
2023-05-24T12:38:59.250Z,8.43
2023-05-24T12:41:26.158Z,6.17
2023-05-24T12:43:53.492Z,6.47
2023-05-24T12:46:20.611Z,6.83
2023-05-24T12:48:47.700Z,6.53
2023-05-24T12:51:14.622Z,5.20
2023-05-24T12:53:43.287Z,4.33
2023-05-24T12:56:11.623Z,5.63
2023-05-24T12:58:38.600Z,5.60
2023-05-24T13:01:05.613Z,5.80
2023-05-24T13:03:32.552Z,7.67
2023-05-24T13:05:59.969Z,7.10
2023-05-24T13:08:29.542Z,6.70
2023-05-24T13:10:57.045Z,6.60
2023-05-24T13:13:25.404Z,5.50
2023-05-24T13:15:52.480Z,6.10
2023-05-24T13:18:19.533Z,4.93
2023-05-24T13:20:46.840Z,6.43
2023-05-24T13:23:14.308Z,5.63
2023-05-24T13:25:41.362Z,5.83
2023-05-24T13:28:08.327Z,6.53
2023-05-24T13:30:36.831Z,5.13
2023-05-24T13:33:03.925Z,9.73
2023-05-24T13:35:31.304Z,6.80
2023-05-24T13:37:58.597Z,6.47
2023-05-24T13:40:26.112Z,7.23
2023-05-24T13:42:55.608Z,7.57
2023-05-24T13:45:22.660Z,6.23
2023-05-24T13:47:51.677Z,5.83
2023-05-24T13:50:20.392Z,5.43
2023-05-24T13:52:47.402Z,5.80
2023-05-24T13:55:14.412Z,7.90
2023-05-24T13:57:50.585Z,6.57
2023-05-24T14:00:19.763Z,5.60
2023-05-24T14:02:47.001Z,7.33
2023-05-24T14:05:26.548Z,5.43
2023-05-24T14:07:54.409Z,6.40
2023-05-24T14:10:21.871Z,6.40
2023-05-24T14:12:59.335Z,4.70
2023-05-24T14:15:31.077Z,7.53
2023-05-24T14:18:00.784Z,6.30
2023-05-24T14:20:29.032Z,5.47
2023-05-24T14:22:58.376Z,6.73
2023-05-24T14:25:25.534Z,5.93
2023-05-24T14:27:52.425Z,7.57
2023-05-24T14:30:19.324Z,6.70
2023-05-24T14:32:46.307Z,6.67
2023-05-24T14:35:13.239Z,6.70
2023-05-24T14:37:41.488Z,7.93
2023-05-24T14:40:09.791Z,7.40
2023-05-24T14:42:36.737Z,5.93
2023-05-24T14:45:04.450Z,6.37
2023-05-24T14:47:31.460Z,6.67
2023-05-24T14:49:58.784Z,6.27
2023-05-24T14:52:25.924Z,4.70
2023-05-24T14:54:54.196Z,5.13
2023-05-24T14:57:21.870Z,5.73
2023-05-24T14:59:48.843Z,7.30
2023-05-24T15:02:16.111Z,6.70
2023-05-24T15:04:43.319Z,5.43
2023-05-24T15:07:10.530Z,7.30
2023-05-24T15:09:37.507Z,5.17
2023-05-24T15:12:07.690Z,7.90
2023-05-24T15:14:34.644Z,6.37
2023-05-24T15:17:01.613Z,5.50
2023-05-24T15:19:28.582Z,6.13
2023-05-24T15:21:55.556Z,5.60
2023-05-24T15:24:22.468Z,6.03
2023-05-24T15:26:49.402Z,6.83
2023-05-24T15:29:17.732Z,4.70
2023-05-24T15:31:44.766Z,6.03
2023-05-24T15:34:11.688Z,6.23
2023-05-24T15:36:38.643Z,4.90
2023-05-24T15:39:06.053Z,5.83
2023-05-24T15:41:33.049Z,7.40
2023-05-24T15:44:02.451Z,4.57
2023-05-24T15:46:30.973Z,4.50
2023-05-24T15:48:57.971Z,5.43
2023-05-24T15:52:01.554Z,7.10
2023-05-24T15:54:11.788Z,5.17
2023-05-24T15:56:38.701Z,5.77
2023-05-24T15:59:05.649Z,6.80
2023-05-24T16:01:33.966Z,5.40
2023-05-24T16:04:00.998Z,6.47
2023-05-24T16:06:27.982Z,6.73
2023-05-24T16:08:54.883Z,6.37
2023-05-24T16:11:23.593Z,6.87
2023-05-24T16:13:50.628Z,6.30
2023-05-24T16:16:17.597Z,6.67
2023-05-24T16:18:45.924Z,9.57
2023-05-24T16:21:12.930Z,6.30
2023-05-24T16:23:39.812Z,7.77
2023-05-24T16:26:07.147Z,7.80
2023-05-24T16:28:34.364Z,7.13
2023-05-24T16:31:03.185Z,5.10
2023-05-24T16:33:30.094Z,6.37
2023-05-24T16:36:03.067Z,5.30
2023-05-24T16:38:30.646Z,5.53
2023-05-24T16:40:57.605Z,5.83
2023-05-24T16:43:24.907Z,4.67
2023-05-24T16:45:51.965Z,5.70
2023-05-24T16:48:21.479Z,5.40
2023-05-24T16:50:50.240Z,5.10
2023-05-24T16:53:20.323Z,4.97
2023-05-24T16:55:47.248Z,6.93
2023-05-24T16:58:14.244Z,5.27
2023-05-24T17:00:41.749Z,6.37
2023-05-24T17:03:09.007Z,5.30
2023-05-24T17:05:35.979Z,5.63
2023-05-24T17:08:02.896Z,4.43
2023-05-24T17:10:31.413Z,7.43
2023-05-24T17:12:58.523Z,5.77
2023-05-24T17:15:25.493Z,4.43
2023-05-24T17:17:52.634Z,5.40
2023-05-24T17:20:19.757Z,6.20
2023-05-24T17:22:47.283Z,5.73
2023-05-24T17:25:14.217Z,6.33
2023-05-24T17:27:42.525Z,5.87
2023-05-24T17:30:10.023Z,5.47
2023-05-24T17:32:37.272Z,5.80
2023-05-24T17:35:04.728Z,5.10
2023-05-24T17:37:32.038Z,6.63
2023-05-24T17:39:58.922Z,5.10
2023-05-24T17:42:26.156Z,6.70
2023-05-24T17:44:54.795Z,4.70
2023-05-24T17:47:22.012Z,5.63
2023-05-24T17:49:48.929Z,6.10
2023-05-24T17:52:15.838Z,7.70
2023-05-24T17:54:42.740Z,6.07
2023-05-24T17:57:10.030Z,5.37
2023-05-24T17:59:36.925Z,4.87
2023-05-24T18:02:05.352Z,4.40
2023-05-24T18:04:33.144Z,5.93
2023-05-24T18:07:00.498Z,4.90
2023-05-24T18:09:27.460Z,4.33
2023-05-24T18:11:54.362Z,5.63
2023-05-24T18:14:21.300Z,5.20
2023-05-24T18:16:48.396Z,7.10
2023-05-24T18:19:16.775Z,3.87
2023-05-24T18:21:43.727Z,7.03
2023-05-24T18:24:10.863Z,6.37
2023-05-24T18:26:37.833Z,4.27
2023-05-24T18:29:04.857Z,5.07
2023-05-24T18:31:31.832Z,6.40
2023-05-24T18:34:00.874Z,5.57
2023-05-24T18:36:30.077Z,5.37
2023-05-24T18:38:56.977Z,4.37
2023-05-24T18:41:23.859Z,5.90
2023-05-24T18:43:50.805Z,5.60
2023-05-24T18:46:17.849Z,5.13
2023-05-24T18:48:44.893Z,5.13
2023-05-24T18:51:11.924Z,5.67
2023-05-24T18:53:40.540Z,5.33
2023-05-24T18:56:07.566Z,6.07
2023-05-24T18:58:34.509Z,5.23
2023-05-24T19:01:01.536Z,6.53
2023-05-24T19:03:28.737Z,6.07
2023-05-24T19:05:56.000Z,5.83
2023-05-24T19:08:22.952Z,6.17
2023-05-24T19:10:52.283Z,5.60
2023-05-24T19:13:19.343Z,5.63
2023-05-24T19:15:46.437Z,3.30
2023-05-24T19:18:13.488Z,4.37
2023-05-24T19:20:40.484Z,4.20
2023-05-24T19:23:07.478Z,5.03
2023-05-24T19:25:41.670Z,5.23
2023-05-24T19:28:10.740Z,5.60
2023-05-24T19:30:37.688Z,4.07
2023-05-24T19:33:04.714Z,3.17
2023-05-24T19:35:31.764Z,5.10
2023-05-24T19:37:58.728Z,4.13
2023-05-24T19:40:25.645Z,4.43
2023-05-24T19:42:52.624Z,5.13
2023-05-24T19:45:20.930Z,4.93
2023-05-24T19:47:47.915Z,5.77
2023-05-24T19:50:14.900Z,3.67
2023-05-24T19:52:41.829Z,4.17
2023-05-24T19:55:10.498Z,4.17
2023-05-24T19:57:37.428Z,3.43
2023-05-24T20:00:05.367Z,4.07
2023-05-24T20:02:39.465Z,4.17
2023-05-24T20:05:07.211Z,4.03
2023-05-24T20:07:34.115Z,3.70
2023-05-24T20:10:01.271Z,5.57
2023-05-24T20:12:30.675Z,4.00
2023-05-24T20:14:57.560Z,3.80
2023-05-24T20:17:24.510Z,4.63
2023-05-24T20:19:52.849Z,4.53
2023-05-24T20:22:19.814Z,4.33
2023-05-24T20:24:46.745Z,4.97
2023-05-24T20:27:14.148Z,2.63
2023-05-24T20:29:41.930Z,4.77
2023-05-24T20:32:09.065Z,3.77
2023-05-24T20:34:36.045Z,6.67
2023-05-24T20:37:04.715Z,6.40
2023-05-24T20:39:31.656Z,4.73
2023-05-24T20:41:59.085Z,5.77
2023-05-24T20:44:26.502Z,3.30
2023-05-24T20:46:53.452Z,4.33
2023-05-24T20:49:20.572Z,3.93
2023-05-24T20:51:47.630Z,3.97
2023-05-24T20:54:16.341Z,4.13
2023-05-24T20:56:43.481Z,4.37
2023-05-24T20:59:10.450Z,3.93
2023-05-24T21:01:37.440Z,2.57
2023-05-24T21:04:04.420Z,4.03
2023-05-24T21:06:33.977Z,3.20
2023-05-24T21:09:01.768Z,6.73
2023-05-24T21:11:30.050Z,3.97
2023-05-24T21:13:58.133Z,4.73
2023-05-24T21:16:25.704Z,3.97
2023-05-24T21:18:52.757Z,4.33
2023-05-24T21:21:19.708Z,4.63
2023-05-24T21:23:46.656Z,4.17
2023-05-24T21:26:13.583Z,4.33
2023-05-24T21:28:41.897Z,4.73
2023-05-24T21:31:08.852Z,4.23
2023-05-24T21:33:37.384Z,4.10
2023-05-24T21:36:04.306Z,3.93
2023-05-24T21:38:31.248Z,6.23
2023-05-24T21:40:58.197Z,5.00
2023-05-24T21:43:25.138Z,4.23
2023-05-24T21:45:53.463Z,4.10
2023-05-24T21:48:21.169Z,4.60
2023-05-24T21:50:48.100Z,5.37
2023-05-24T21:53:15.052Z,4.53
2023-05-24T21:55:42.092Z,3.63
2023-05-24T21:58:09.105Z,5.50
2023-05-24T22:00:36.872Z,4.13
2023-05-24T22:03:05.351Z,5.70
2023-05-24T22:05:32.464Z,4.77
2023-05-24T22:07:59.395Z,4.03
2023-05-24T22:10:26.624Z,5.27
2023-05-24T22:12:53.570Z,4.20
2023-05-24T22:15:20.848Z,3.87
2023-05-24T22:17:48.185Z,6.17
2023-05-24T22:20:17.090Z,4.13
2023-05-24T22:22:53.679Z,6.60
2023-05-24T22:25:20.982Z,4.73
2023-05-24T22:27:48.908Z,5.37
2023-05-24T22:30:16.316Z,5.17
2023-05-24T22:32:43.697Z,5.30
2023-05-24T22:35:10.938Z,5.53
2023-05-24T22:37:39.432Z,3.97
2023-05-24T22:40:07.763Z,6.03
2023-05-24T22:42:34.739Z,5.07
2023-05-24T22:45:01.682Z,5.83
2023-05-24T22:47:33.135Z,4.57
2023-05-24T22:50:01.913Z,4.63
2023-05-24T22:52:30.160Z,5.57
2023-05-24T22:54:58.453Z,5.27
2023-05-24T22:57:25.483Z,4.73
2023-05-24T22:59:53.097Z,6.53
2023-05-24T23:02:20.089Z,5.37
2023-05-24T23:04:47.481Z,7.93
2023-05-24T23:07:15.482Z,5.67
2023-05-24T23:09:42.583Z,3.90
2023-05-24T23:12:11.759Z,4.93
2023-05-24T23:14:41.394Z,5.50
2023-05-24T23:17:17.131Z,6.13
2023-05-24T23:19:44.278Z,5.57
2023-05-24T23:22:12.074Z,5.77
2023-05-24T23:24:39.294Z,4.47
2023-05-24T23:27:06.924Z,5.57
2023-05-24T23:29:35.234Z,4.70
2023-05-24T23:32:02.357Z,4.97
2023-05-24T23:34:29.334Z,6.53
2023-05-24T23:36:56.313Z,5.40
2023-05-24T23:39:23.345Z,6.07
2023-05-24T23:41:50.478Z,6.33
2023-05-24T23:44:17.451Z,5.30
2023-05-24T23:46:45.872Z,4.53
2023-05-24T23:49:12.895Z,7.53
2023-05-24T23:51:39.810Z,4.93
2023-05-24T23:54:06.814Z,5.67
2023-05-24T23:56:33.863Z,5.87
2023-05-24T23:59:01.455Z,5.17
